sensor_id;sensor_type;location;lat;lon;timestamp;temperature;humidity
8402;DHT22;4238;48.404;9.498;2023-07-31T04:01:29;11.00;99.90
8402;DHT22;4238;48.404;9.498;2023-07-31T04:03:55;10.90;99.90
8402;DHT22;4238;48.404;9.498;2023-07-31T04:06:22;10.80;99.90
8402;DHT22;4238;48.404;9.498;2023-07-31T04:08:49;10.70;99.90
8402;DHT22;4238;48.404;9.498;2023-07-31T04:11:16;10.70;99.90
8402;DHT22;4238;48.404;9.498;2023-07-31T04:13:43;10.80;99.90
8402;DHT22;4238;48.404;9.498;2023-07-31T04:16:10;10.80;99.90
8402;DHT22;4238;48.404;9.498;2023-07-31T04:18:38;10.70;99.90
8402;DHT22;4238;48.404;9.498;2023-07-31T04:21:05;10.80;99.90
8402;DHT22;4238;48.404;9.498;2023-07-31T04:23:31;10.80;99.90
8402;DHT22;4238;48.404;9.498;2023-07-31T04:25:58;10.90;99.90
8402;DHT22;4238;48.404;9.498;2023-07-31T04:28:25;10.90;99.90
8402;DHT22;4238;48.404;9.498;2023-07-31T04:30:52;10.90;99.90
8402;DHT22;4238;48.404;9.498;2023-07-31T04:33:19;10.80;99.90
8402;DHT22;4238;48.404;9.498;2023-07-31T04:35:50;10.80;99.90
8402;DHT22;4238;48.404;9.498;2023-07-31T04:38:18;10.80;99.90
8402;DHT22;4238;48.404;9.498;2023-07-31T04:40:46;10.90;99.90
8402;DHT22;4238;48.404;9.498;2023-07-31T04:43:13;10.90;99.90
8402;DHT22;4238;48.404;9.498;2023-07-31T04:45:42;11.00;99.90
8402;DHT22;4238;48.404;9.498;2023-07-31T04:48:09;11.00;99.90
8402;DHT22;4238;48.404;9.498;2023-07-31T04:50:36;11.10;99.90
8402;DHT22;4238;48.404;9.498;2023-07-31T04:53:04;11.20;99.90
8402;DHT22;4238;48.404;9.498;2023-07-31T04:55:31;11.30;99.90
8402;DHT22;4238;48.404;9.498;2023-07-31T04:57:59;11.30;99.90
8402;DHT22;4238;48.404;9.498;2023-07-31T05:00:25;11.50;99.90
8402;DHT22;4238;48.404;9.498;2023-07-31T05:02:52;11.60;99.90
8402;DHT22;4238;48.404;9.498;2023-07-31T05:05:19;11.60;99.90
8402;DHT22;4238;48.404;9.498;2023-07-31T05:07:46;11.70;99.90
8402;DHT22;4238;48.404;9.498;2023-07-31T05:10:14;11.80;99.90
8402;DHT22;4238;48.404;9.498;2023-07-31T05:12:41;11.90;99.90
8402;DHT22;4238;48.404;9.498;2023-07-31T05:15:09;12.00;99.90
8402;DHT22;4238;48.404;9.498;2023-07-31T05:17:36;12.10;99.90
8402;DHT22;4238;48.404;9.498;2023-07-31T05:20:03;12.20;99.90
8402;DHT22;4238;48.404;9.498;2023-07-31T05:22:30;12.20;99.90
8402;DHT22;4238;48.404;9.498;2023-07-31T05:24:56;12.30;99.90
8402;DHT22;4238;48.404;9.498;2023-07-31T05:27:25;12.30;99.90
8402;DHT22;4238;48.404;9.498;2023-07-31T05:29:51;12.40;99.90
8402;DHT22;4238;48.404;9.498;2023-07-31T05:32:18;12.50;99.90
8402;DHT22;4238;48.404;9.498;2023-07-31T05:34:45;12.50;99.90
8402;DHT22;4238;48.404;9.498;2023-07-31T05:37:12;12.60;99.90
8402;DHT22;4238;48.404;9.498;2023-07-31T05:39:39;12.70;99.90
8402;DHT22;4238;48.404;9.498;2023-07-31T05:42:06;12.80;99.90
8402;DHT22;4238;48.404;9.498;2023-07-31T05:44:34;12.90;99.90
8402;DHT22;4238;48.404;9.498;2023-07-31T05:47:01;13.00;99.90
8402;DHT22;4238;48.404;9.498;2023-07-31T05:49:28;13.20;99.90
8402;DHT22;4238;48.404;9.498;2023-07-31T05:51:55;13.50;99.90
8402;DHT22;4238;48.404;9.498;2023-07-31T05:54:22;13.90;99.90
8402;DHT22;4238;48.404;9.498;2023-07-31T05:56:49;14.30;99.30
8402;DHT22;4238;48.404;9.498;2023-07-31T05:59:16;14.40;91.90
8402;DHT22;4238;48.404;9.498;2023-07-31T06:01:44;14.40;85.50
8402;DHT22;4238;48.404;9.498;2023-07-31T06:04:11;14.60;88.60
8402;DHT22;4238;48.404;9.498;2023-07-31T06:06:38;14.80;90.60
8402;DHT22;4238;48.404;9.498;2023-07-31T06:09:05;14.80;74.90
8402;DHT22;4238;48.404;9.498;2023-07-31T06:11:32;14.80;76.00
8402;DHT22;4238;48.404;9.498;2023-07-31T06:13:59;14.80;67.70
8402;DHT22;4238;48.404;9.498;2023-07-31T06:16:26;14.70;84.90
8402;DHT22;4238;48.404;9.498;2023-07-31T06:18:54;14.70;72.20
8402;DHT22;4238;48.404;9.498;2023-07-31T06:21:21;14.70;81.40
8402;DHT22;4238;48.404;9.498;2023-07-31T06:23:48;14.70;81.40
8402;DHT22;4238;48.404;9.498;2023-07-31T06:26:14;14.70;74.80
8402;DHT22;4238;48.404;9.498;2023-07-31T06:28:41;14.80;56.30
8402;DHT22;4238;48.404;9.498;2023-07-31T06:31:08;14.80;51.00
8402;DHT22;4238;48.404;9.498;2023-07-31T06:33:35;14.90;28.00
8402;DHT22;4238;48.404;9.498;2023-07-31T06:36:04;14.90;27.00
8402;DHT22;4238;48.404;9.498;2023-07-31T06:38:31;14.80;50.50
8402;DHT22;4238;48.404;9.498;2023-07-31T06:40:58;14.90;44.80
8402;DHT22;4238;48.404;9.498;2023-07-31T06:43:25;14.90;40.10
8402;DHT22;4238;48.404;9.498;2023-07-31T06:45:52;14.90;38.00
8402;DHT22;4238;48.404;9.498;2023-07-31T06:48:19;15.00;44.50
8402;DHT22;4238;48.404;9.498;2023-07-31T06:50:45;15.10;46.20
8402;DHT22;4238;48.404;9.498;2023-07-31T06:53:14;15.10;36.20
8402;DHT22;4238;48.404;9.498;2023-07-31T06:55:41;15.20;44.80
8402;DHT22;4238;48.404;9.498;2023-07-31T06:58:07;15.30;34.40
8402;DHT22;4238;48.404;9.498;2023-07-31T07:00:34;15.40;35.30
8402;DHT22;4238;48.404;9.498;2023-07-31T07:03:01;15.50;29.50
8402;DHT22;4238;48.404;9.498;2023-07-31T07:05:28;15.60;10.00
8402;DHT22;4238;48.404;9.498;2023-07-31T07:07:55;15.70;20.40
8402;DHT22;4238;48.404;9.498;2023-07-31T07:10:23;15.80;13.00
8402;DHT22;4238;48.404;9.498;2023-07-31T07:12:50;15.90;7.60
8402;DHT22;4238;48.404;9.498;2023-07-31T07:15:17;16.10;8.00
8402;DHT22;4238;48.404;9.498;2023-07-31T07:17:43;16.40;1.00
8402;DHT22;4238;48.404;9.498;2023-07-31T07:20:10;16.60;1.00
8402;DHT22;4238;48.404;9.498;2023-07-31T07:22:37;16.60;1.00
8402;DHT22;4238;48.404;9.498;2023-07-31T07:25:05;16.70;1.00
8402;DHT22;4238;48.404;9.498;2023-07-31T07:27:34;16.70;1.00
8402;DHT22;4238;48.404;9.498;2023-07-31T07:30:01;16.70;1.00
8402;DHT22;4238;48.404;9.498;2023-07-31T07:32:28;16.70;1.00
8402;DHT22;4238;48.404;9.498;2023-07-31T07:34:55;16.80;1.00
8402;DHT22;4238;48.404;9.498;2023-07-31T07:37:22;17.00;1.00
8402;DHT22;4238;48.404;9.498;2023-07-31T07:39:49;17.00;1.00
8402;DHT22;4238;48.404;9.498;2023-07-31T07:42:16;17.40;1.00
8402;DHT22;4238;48.404;9.498;2023-07-31T07:44:44;18.00;1.00
8402;DHT22;4238;48.404;9.498;2023-07-31T07:47:12;18.20;1.00
8402;DHT22;4238;48.404;9.498;2023-07-31T07:49:39;18.30;1.00
8402;DHT22;4238;48.404;9.498;2023-07-31T07:52:06;18.50;1.00
8402;DHT22;4238;48.404;9.498;2023-07-31T07:54:33;19.00;99.90
8402;DHT22;4238;48.404;9.498;2023-07-31T07:57:00;19.20;99.90
8402;DHT22;4238;48.404;9.498;2023-07-31T07:59:26;19.40;1.00
8402;DHT22;4238;48.404;9.498;2023-07-31T08:01:55;19.50;99.90
8402;DHT22;4238;48.404;9.498;2023-07-31T08:04:23;19.70;93.20
8402;DHT22;4238;48.404;9.498;2023-07-31T08:06:49;19.70;1.00
8402;DHT22;4238;48.404;9.498;2023-07-31T08:09:16;19.80;1.00
8402;DHT22;4238;48.404;9.498;2023-07-31T08:11:43;19.70;1.00
8402;DHT22;4238;48.404;9.498;2023-07-31T08:14:10;19.80;1.00
8402;DHT22;4238;48.404;9.498;2023-07-31T08:16:37;20.30;1.00
8402;DHT22;4238;48.404;9.498;2023-07-31T08:19:05;20.50;99.90
8402;DHT22;4238;48.404;9.498;2023-07-31T08:21:32;20.70;1.00
8402;DHT22;4238;48.404;9.498;2023-07-31T08:23:59;21.00;1.00
8402;DHT22;4238;48.404;9.498;2023-07-31T08:26:26;21.00;1.00
8402;DHT22;4238;48.404;9.498;2023-07-31T08:28:53;21.10;1.00
8402;DHT22;4238;48.404;9.498;2023-07-31T08:31:19;20.90;1.00
8402;DHT22;4238;48.404;9.498;2023-07-31T08:33:46;20.80;1.00
8402;DHT22;4238;48.404;9.498;2023-07-31T08:36:14;20.90;18.20
8402;DHT22;4238;48.404;9.498;2023-07-31T08:38:41;21.00;1.00
8402;DHT22;4238;48.404;9.498;2023-07-31T08:41:08;21.10;99.90
8402;DHT22;4238;48.404;9.498;2023-07-31T08:43:35;21.40;1.00
8402;DHT22;4238;48.404;9.498;2023-07-31T08:46:02;21.30;99.90
8402;DHT22;4238;48.404;9.498;2023-07-31T08:48:31;21.00;1.00
8402;DHT22;4238;48.404;9.498;2023-07-31T08:50:58;20.90;66.70
8402;DHT22;4238;48.404;9.498;2023-07-31T08:53:26;21.20;1.00
8402;DHT22;4238;48.404;9.498;2023-07-31T08:55:53;21.60;1.00
8402;DHT22;4238;48.404;9.498;2023-07-31T08:58:21;22.00;1.00
8402;DHT22;4238;48.404;9.498;2023-07-31T09:00:48;22.10;99.90
8402;DHT22;4238;48.404;9.498;2023-07-31T09:03:18;22.00;99.90
8402;DHT22;4238;48.404;9.498;2023-07-31T09:05:46;21.60;94.70
8402;DHT22;4238;48.404;9.498;2023-07-31T09:08:17;21.90;99.90
8402;DHT22;4238;48.404;9.498;2023-07-31T09:10:46;21.60;8.80
8402;DHT22;4238;48.404;9.498;2023-07-31T09:13:13;21.50;7.40
8402;DHT22;4238;48.404;9.498;2023-07-31T09:15:43;21.60;99.90
8402;DHT22;4238;48.404;9.498;2023-07-31T09:18:10;21.50;99.90
8402;DHT22;4238;48.404;9.498;2023-07-31T09:20:37;21.40;99.90
8402;DHT22;4238;48.404;9.498;2023-07-31T09:23:08;21.50;76.70
8402;DHT22;4238;48.404;9.498;2023-07-31T09:25:35;21.50;82.90
8402;DHT22;4238;48.404;9.498;2023-07-31T09:28:05;21.70;44.30
8402;DHT22;4238;48.404;9.498;2023-07-31T09:30:45;22.30;99.90
8402;DHT22;4238;48.404;9.498;2023-07-31T09:33:13;22.50;54.10
8402;DHT22;4238;48.404;9.498;2023-07-31T09:35:40;22.70;97.60
8402;DHT22;4238;48.404;9.498;2023-07-31T09:38:10;23.00;1.00
8402;DHT22;4238;48.404;9.498;2023-07-31T09:40:39;23.20;1.00
8402;DHT22;4238;48.404;9.498;2023-07-31T09:43:10;23.20;1.00
8402;DHT22;4238;48.404;9.498;2023-07-31T09:45:39;22.80;99.90
8402;DHT22;4238;48.404;9.498;2023-07-31T09:48:07;22.00;1.00
8402;DHT22;4238;48.404;9.498;2023-07-31T09:50:37;22.30;1.00
8402;DHT22;4238;48.404;9.498;2023-07-31T09:53:04;22.50;1.00
8402;DHT22;4238;48.404;9.498;2023-07-31T09:55:32;22.80;1.00
8402;DHT22;4238;48.404;9.498;2023-07-31T09:58:00;22.70;1.00
8402;DHT22;4238;48.404;9.498;2023-07-31T10:00:31;22.40;1.00
8402;DHT22;4238;48.404;9.498;2023-07-31T10:02:59;22.20;1.00
8402;DHT22;4238;48.404;9.498;2023-07-31T10:05:30;22.10;1.00
8402;DHT22;4238;48.404;9.498;2023-07-31T10:07:57;22.00;1.00
8402;DHT22;4238;48.404;9.498;2023-07-31T10:10:25;21.90;1.00
8402;DHT22;4238;48.404;9.498;2023-07-31T10:12:53;22.00;1.00
8402;DHT22;4238;48.404;9.498;2023-07-31T10:15:20;22.20;1.00
8402;DHT22;4238;48.404;9.498;2023-07-31T10:17:50;22.30;1.00
8402;DHT22;4238;48.404;9.498;2023-07-31T10:20:17;22.50;1.00
8402;DHT22;4238;48.404;9.498;2023-07-31T10:22:44;22.50;1.00
8402;DHT22;4238;48.404;9.498;2023-07-31T10:25:13;22.80;1.00
8402;DHT22;4238;48.404;9.498;2023-07-31T10:27:39;22.90;1.00
8402;DHT22;4238;48.404;9.498;2023-07-31T10:30:10;22.90;1.00
8402;DHT22;4238;48.404;9.498;2023-07-31T10:32:39;22.90;1.00
8402;DHT22;4238;48.404;9.498;2023-07-31T10:35:09;23.00;1.00
8402;DHT22;4238;48.404;9.498;2023-07-31T10:37:37;23.30;1.00
8402;DHT22;4238;48.404;9.498;2023-07-31T10:40:05;23.50;99.90
8402;DHT22;4238;48.404;9.498;2023-07-31T10:42:34;23.50;99.90
8402;DHT22;4238;48.404;9.498;2023-07-31T10:45:03;23.80;1.00
8402;DHT22;4238;48.404;9.498;2023-07-31T10:47:31;24.30;99.90
8402;DHT22;4238;48.404;9.498;2023-07-31T10:50:17;24.10;99.90
8402;DHT22;4238;48.404;9.498;2023-07-31T10:52:47;24.40;99.90
8402;DHT22;4238;48.404;9.498;2023-07-31T10:55:30;24.50;99.90
8402;DHT22;4238;48.404;9.498;2023-07-31T10:58:04;24.70;99.90
8402;DHT22;4238;48.404;9.498;2023-07-31T11:00:32;24.80;99.90
8402;DHT22;4238;48.404;9.498;2023-07-31T11:03:01;24.80;97.20
8402;DHT22;4238;48.404;9.498;2023-07-31T11:05:52;24.90;58.40
8402;DHT22;4238;48.404;9.498;2023-07-31T11:08:22;25.00;74.80
8402;DHT22;4238;48.404;9.498;2023-07-31T11:10:51;25.30;99.90
8402;DHT22;4238;48.404;9.498;2023-07-31T11:13:19;25.60;99.90
8402;DHT22;4238;48.404;9.498;2023-07-31T11:15:46;25.80;99.90
8402;DHT22;4238;48.404;9.498;2023-07-31T11:18:13;25.80;91.40
8402;DHT22;4238;48.404;9.498;2023-07-31T11:20:40;26.00;1.00
8402;DHT22;4238;48.404;9.498;2023-07-31T11:23:10;25.60;1.00
8402;DHT22;4238;48.404;9.498;2023-07-31T11:25:38;25.50;1.00
8402;DHT22;4238;48.404;9.498;2023-07-31T11:28:10;25.30;1.00
8402;DHT22;4238;48.404;9.498;2023-07-31T11:30:37;25.20;1.00
8402;DHT22;4238;48.404;9.498;2023-07-31T11:33:05;25.00;1.00
8402;DHT22;4238;48.404;9.498;2023-07-31T11:35:33;24.50;1.00
8402;DHT22;4238;48.404;9.498;2023-07-31T11:38:01;24.40;1.00
8402;DHT22;4238;48.404;9.498;2023-07-31T11:40:29;24.70;99.90
8402;DHT22;4238;48.404;9.498;2023-07-31T11:42:57;25.10;99.90
8402;DHT22;4238;48.404;9.498;2023-07-31T11:45:25;25.50;78.30
8402;DHT22;4238;48.404;9.498;2023-07-31T11:47:54;25.40;1.00
8402;DHT22;4238;48.404;9.498;2023-07-31T11:50:22;25.50;1.00
8402;DHT22;4238;48.404;9.498;2023-07-31T11:52:51;25.80;57.80
8402;DHT22;4238;48.404;9.498;2023-07-31T11:55:19;25.60;1.00
8402;DHT22;4238;48.404;9.498;2023-07-31T11:57:48;25.80;4.70
8402;DHT22;4238;48.404;9.498;2023-07-31T12:00:16;26.20;74.60
8402;DHT22;4238;48.404;9.498;2023-07-31T12:02:43;26.00;1.00
8402;DHT22;4238;48.404;9.498;2023-07-31T12:05:11;25.50;1.00
8402;DHT22;4238;48.404;9.498;2023-07-31T12:07:46;25.10;1.00
8402;DHT22;4238;48.404;9.498;2023-07-31T12:10:26;24.80;1.00
8402;DHT22;4238;48.404;9.498;2023-07-31T12:13:02;24.40;1.00
8402;DHT22;4238;48.404;9.498;2023-07-31T12:15:33;24.40;1.00
8402;DHT22;4238;48.404;9.498;2023-07-31T12:18:04;24.40;52.80
8402;DHT22;4238;48.404;9.498;2023-07-31T12:20:32;24.40;99.50
8402;DHT22;4238;48.404;9.498;2023-07-31T12:22:59;24.50;99.90
8402;DHT22;4238;48.404;9.498;2023-07-31T12:25:32;24.50;99.90
8402;DHT22;4238;48.404;9.498;2023-07-31T12:28:06;24.30;40.00
8402;DHT22;4238;48.404;9.498;2023-07-31T12:30:37;24.10;57.90
8402;DHT22;4238;48.404;9.498;2023-07-31T12:33:05;23.70;54.20
8402;DHT22;4238;48.404;9.498;2023-07-31T12:35:37;23.40;7.20
8402;DHT22;4238;48.404;9.498;2023-07-31T12:38:04;23.20;99.90
8402;DHT22;4238;48.404;9.498;2023-07-31T12:40:31;23.00;99.90
8402;DHT22;4238;48.404;9.498;2023-07-31T12:43:00;22.80;99.90
8402;DHT22;4238;48.404;9.498;2023-07-31T12:45:28;22.80;99.90
8402;DHT22;4238;48.404;9.498;2023-07-31T12:47:55;22.70;99.90
8402;DHT22;4238;48.404;9.498;2023-07-31T12:50:22;22.70;99.90
8402;DHT22;4238;48.404;9.498;2023-07-31T12:52:49;22.80;1.00
8402;DHT22;4238;48.404;9.498;2023-07-31T12:55:16;23.00;1.00
8402;DHT22;4238;48.404;9.498;2023-07-31T12:57:44;23.30;99.90
8402;DHT22;4238;48.404;9.498;2023-07-31T13:00:12;23.60;41.80
8402;DHT22;4238;48.404;9.498;2023-07-31T13:02:40;23.70;1.00
8402;DHT22;4238;48.404;9.498;2023-07-31T13:05:08;23.90;1.00
8402;DHT22;4238;48.404;9.498;2023-07-31T13:07:35;23.90;1.00
8402;DHT22;4238;48.404;9.498;2023-07-31T13:10:02;23.90;1.00
8402;DHT22;4238;48.404;9.498;2023-07-31T13:12:29;24.00;99.90
8402;DHT22;4238;48.404;9.498;2023-07-31T13:14:56;24.10;99.90
8402;DHT22;4238;48.404;9.498;2023-07-31T13:17:22;24.30;99.90
8402;DHT22;4238;48.404;9.498;2023-07-31T13:19:51;24.40;99.90
8402;DHT22;4238;48.404;9.498;2023-07-31T13:22:17;24.60;99.90
8402;DHT22;4238;48.404;9.498;2023-07-31T13:24:44;24.70;99.90
8402;DHT22;4238;48.404;9.498;2023-07-31T13:27:11;24.60;99.90
8402;DHT22;4238;48.404;9.498;2023-07-31T13:29:38;24.40;99.90
8402;DHT22;4238;48.404;9.498;2023-07-31T13:32:05;24.50;99.90
8402;DHT22;4238;48.404;9.498;2023-07-31T13:34:32;25.00;99.90
8402;DHT22;4238;48.404;9.498;2023-07-31T13:37:00;25.20;99.90
8402;DHT22;4238;48.404;9.498;2023-07-31T13:39:27;25.10;99.90
8402;DHT22;4238;48.404;9.498;2023-07-31T13:41:54;25.00;99.90
8402;DHT22;4238;48.404;9.498;2023-07-31T13:44:21;25.00;99.90
8402;DHT22;4238;48.404;9.498;2023-07-31T13:46:47;24.90;99.90
8402;DHT22;4238;48.404;9.498;2023-07-31T13:49:14;25.00;99.90
8402;DHT22;4238;48.404;9.498;2023-07-31T13:51:41;24.90;99.90
8402;DHT22;4238;48.404;9.498;2023-07-31T13:54:09;24.80;99.90
8402;DHT22;4238;48.404;9.498;2023-07-31T13:56:37;24.60;99.90
8402;DHT22;4238;48.404;9.498;2023-07-31T13:59:04;24.50;99.90
8402;DHT22;4238;48.404;9.498;2023-07-31T14:01:31;24.60;99.90
8402;DHT22;4238;48.404;9.498;2023-07-31T14:03:58;24.60;99.90
8402;DHT22;4238;48.404;9.498;2023-07-31T14:06:25;24.90;99.90
8402;DHT22;4238;48.404;9.498;2023-07-31T14:08:52;24.90;99.90
8402;DHT22;4238;48.404;9.498;2023-07-31T14:11:20;24.90;99.90
8402;DHT22;4238;48.404;9.498;2023-07-31T14:13:47;24.80;99.90
8402;DHT22;4238;48.404;9.498;2023-07-31T14:16:14;24.90;99.90
8402;DHT22;4238;48.404;9.498;2023-07-31T14:18:41;24.80;99.90
8402;DHT22;4238;48.404;9.498;2023-07-31T14:21:08;24.70;99.90
8402;DHT22;4238;48.404;9.498;2023-07-31T14:23:34;24.50;99.90
8402;DHT22;4238;48.404;9.498;2023-07-31T14:26:01;24.30;99.90
8402;DHT22;4238;48.404;9.498;2023-07-31T14:28:30;23.90;99.90
8402;DHT22;4238;48.404;9.498;2023-07-31T14:30:57;23.70;99.90
8402;DHT22;4238;48.404;9.498;2023-07-31T14:33:24;23.40;99.90
8402;DHT22;4238;48.404;9.498;2023-07-31T14:35:51;23.20;99.90
8402;DHT22;4238;48.404;9.498;2023-07-31T14:38:18;23.10;99.90
8402;DHT22;4238;48.404;9.498;2023-07-31T14:40:45;23.00;99.90
8402;DHT22;4238;48.404;9.498;2023-07-31T14:43:12;23.00;99.90
8402;DHT22;4238;48.404;9.498;2023-07-31T14:45:40;23.00;1.00
8402;DHT22;4238;48.404;9.498;2023-07-31T14:48:07;23.00;1.00
8402;DHT22;4238;48.404;9.498;2023-07-31T14:50:34;23.00;1.00
8402;DHT22;4238;48.404;9.498;2023-07-31T14:53:01;23.00;1.00
8402;DHT22;4238;48.404;9.498;2023-07-31T14:55:28;22.90;1.00
8402;DHT22;4238;48.404;9.498;2023-07-31T14:57:55;22.90;1.00
8402;DHT22;4238;48.404;9.498;2023-07-31T15:00:21;23.00;41.20
8402;DHT22;4238;48.404;9.498;2023-07-31T15:02:51;23.00;1.00
8402;DHT22;4238;48.404;9.498;2023-07-31T15:05:18;22.90;1.00
8402;DHT22;4238;48.404;9.498;2023-07-31T15:07:44;22.80;1.00
8402;DHT22;4238;48.404;9.498;2023-07-31T15:10:11;22.60;99.90
8402;DHT22;4238;48.404;9.498;2023-07-31T15:12:40;22.50;99.90
8402;DHT22;4238;48.404;9.498;2023-07-31T15:15:07;22.30;99.90
8402;DHT22;4238;48.404;9.498;2023-07-31T15:17:34;22.20;99.90
8402;DHT22;4238;48.404;9.498;2023-07-31T15:20:03;22.10;1.00
8402;DHT22;4238;48.404;9.498;2023-07-31T15:22:30;22.00;1.00
8402;DHT22;4238;48.404;9.498;2023-07-31T15:24:57;22.00;1.00
8402;DHT22;4238;48.404;9.498;2023-07-31T15:27:24;21.90;48.20
8402;DHT22;4238;48.404;9.498;2023-07-31T15:29:51;21.80;49.80
8402;DHT22;4238;48.404;9.498;2023-07-31T15:32:18;21.80;99.90
8402;DHT22;4238;48.404;9.498;2023-07-31T15:34:45;21.60;1.00
8402;DHT22;4238;48.404;9.498;2023-07-31T15:37:13;21.60;99.90
8402;DHT22;4238;48.404;9.498;2023-07-31T15:39:40;21.20;1.00
8402;DHT22;4238;48.404;9.498;2023-07-31T15:42:07;21.20;1.00
8402;DHT22;4238;48.404;9.498;2023-07-31T15:44:34;21.10;1.00
8402;DHT22;4238;48.404;9.498;2023-07-31T15:47:01;21.10;99.90
8402;DHT22;4238;48.404;9.498;2023-07-31T15:49:28;21.00;1.00
8402;DHT22;4238;48.404;9.498;2023-07-31T15:51:55;20.90;99.90
8402;DHT22;4238;48.404;9.498;2023-07-31T15:54:24;20.80;99.90
8402;DHT22;4238;48.404;9.498;2023-07-31T15:56:50;20.80;99.90
8402;DHT22;4238;48.404;9.498;2023-07-31T15:59:17;20.70;57.00
8402;DHT22;4238;48.404;9.498;2023-07-31T16:01:44;20.70;1.00
8402;DHT22;4238;48.404;9.498;2023-07-31T16:04:11;20.70;99.90
8402;DHT22;4238;48.404;9.498;2023-07-31T16:06:38;20.70;99.90
8402;DHT22;4238;48.404;9.498;2023-07-31T16:09:05;20.70;1.00
8402;DHT22;4238;48.404;9.498;2023-07-31T16:11:33;20.70;1.00
8402;DHT22;4238;48.404;9.498;2023-07-31T16:14:00;20.80;1.00
8402;DHT22;4238;48.404;9.498;2023-07-31T16:16:27;20.90;1.00
8402;DHT22;4238;48.404;9.498;2023-07-31T16:18:54;21.00;1.00
8402;DHT22;4238;48.404;9.498;2023-07-31T16:21:21;21.00;1.00
8402;DHT22;4238;48.404;9.498;2023-07-31T16:23:48;20.90;1.00
8402;DHT22;4238;48.404;9.498;2023-07-31T16:26:15;20.90;1.00
8402;DHT22;4238;48.404;9.498;2023-07-31T16:28:43;20.90;1.00
8402;DHT22;4238;48.404;9.498;2023-07-31T16:31:10;20.90;1.00
8402;DHT22;4238;48.404;9.498;2023-07-31T16:33:37;20.80;1.00
8402;DHT22;4238;48.404;9.498;2023-07-31T16:36:04;20.80;99.90
8402;DHT22;4238;48.404;9.498;2023-07-31T16:38:31;20.90;1.00
8402;DHT22;4238;48.404;9.498;2023-07-31T16:40:58;20.90;1.00
8402;DHT22;4238;48.404;9.498;2023-07-31T16:43:25;20.90;1.00
8402;DHT22;4238;48.404;9.498;2023-07-31T16:45:55;20.90;99.90
8402;DHT22;4238;48.404;9.498;2023-07-31T16:48:22;20.90;71.40
8402;DHT22;4238;48.404;9.498;2023-07-31T16:50:49;20.80;62.90
8402;DHT22;4238;48.404;9.498;2023-07-31T16:53:16;20.70;99.90
8402;DHT22;4238;48.404;9.498;2023-07-31T16:55:43;20.60;99.90
8402;DHT22;4238;48.404;9.498;2023-07-31T16:58:10;20.60;99.90
8402;DHT22;4238;48.404;9.498;2023-07-31T17:00:37;20.60;1.00
8402;DHT22;4238;48.404;9.498;2023-07-31T17:03:05;20.50;99.90
8402;DHT22;4238;48.404;9.498;2023-07-31T17:05:32;20.30;99.90
8402;DHT22;4238;48.404;9.498;2023-07-31T17:07:59;20.20;99.90
8402;DHT22;4238;48.404;9.498;2023-07-31T17:10:26;20.00;8.80
8402;DHT22;4238;48.404;9.498;2023-07-31T17:12:52;20.00;1.00
8402;DHT22;4238;48.404;9.498;2023-07-31T17:15:19;20.10;1.00
8402;DHT22;4238;48.404;9.498;2023-07-31T17:17:45;20.00;1.00
8402;DHT22;4238;48.404;9.498;2023-07-31T17:20:13;19.90;99.90
8402;DHT22;4238;48.404;9.498;2023-07-31T17:22:40;19.90;99.90
8402;DHT22;4238;48.404;9.498;2023-07-31T17:25:09;19.80;1.00
8402;DHT22;4238;48.404;9.498;2023-07-31T17:27:36;19.80;1.00
8402;DHT22;4238;48.404;9.498;2023-07-31T17:30:05;19.70;1.00
8402;DHT22;4238;48.404;9.498;2023-07-31T17:32:32;19.60;1.00
8402;DHT22;4238;48.404;9.498;2023-07-31T17:34:58;19.50;1.00
8402;DHT22;4238;48.404;9.498;2023-07-31T17:37:27;19.40;1.00
8402;DHT22;4238;48.404;9.498;2023-07-31T17:39:54;19.30;1.00
8402;DHT22;4238;48.404;9.498;2023-07-31T17:42:20;19.10;1.00
8402;DHT22;4238;48.404;9.498;2023-07-31T17:44:47;18.90;1.00
8402;DHT22;4238;48.404;9.498;2023-07-31T17:47:14;18.90;1.00
8402;DHT22;4238;48.404;9.498;2023-07-31T17:49:41;18.80;1.00
8402;DHT22;4238;48.404;9.498;2023-07-31T17:52:08;18.80;1.00
8402;DHT22;4238;48.404;9.498;2023-07-31T17:54:36;18.80;1.00
8402;DHT22;4238;48.404;9.498;2023-07-31T17:57:03;18.80;1.00
8402;DHT22;4238;48.404;9.498;2023-07-31T17:59:30;18.80;1.00
8402;DHT22;4238;48.404;9.498;2023-07-31T18:01:57;18.80;1.00
8402;DHT22;4238;48.404;9.498;2023-07-31T18:04:24;18.80;1.00
8402;DHT22;4238;48.404;9.498;2023-07-31T18:06:52;18.80;1.00
8402;DHT22;4238;48.404;9.498;2023-07-31T18:09:19;18.90;1.00
8402;DHT22;4238;48.404;9.498;2023-07-31T18:11:47;18.90;1.00
8402;DHT22;4238;48.404;9.498;2023-07-31T18:14:14;18.90;1.00
8402;DHT22;4238;48.404;9.498;2023-07-31T18:16:41;18.80;1.00
8402;DHT22;4238;48.404;9.498;2023-07-31T18:19:07;18.80;1.00
8402;DHT22;4238;48.404;9.498;2023-07-31T18:21:35;18.80;1.00
8402;DHT22;4238;48.404;9.498;2023-07-31T18:24:02;18.70;1.00
8402;DHT22;4238;48.404;9.498;2023-07-31T18:26:29;18.60;1.00
8402;DHT22;4238;48.404;9.498;2023-07-31T18:28:58;18.50;1.00
8402;DHT22;4238;48.404;9.498;2023-07-31T18:31:25;18.50;1.00
8402;DHT22;4238;48.404;9.498;2023-07-31T18:33:52;18.30;1.00
8402;DHT22;4238;48.404;9.498;2023-07-31T18:36:19;18.20;1.00
8402;DHT22;4238;48.404;9.498;2023-07-31T18:38:45;18.20;1.00
8402;DHT22;4238;48.404;9.498;2023-07-31T18:41:12;18.10;1.00
8402;DHT22;4238;48.404;9.498;2023-07-31T18:43:39;18.10;1.00
8402;DHT22;4238;48.404;9.498;2023-07-31T18:46:07;18.10;1.00
8402;DHT22;4238;48.404;9.498;2023-07-31T18:48:34;18.10;1.00
8402;DHT22;4238;48.404;9.498;2023-07-31T18:51:01;18.00;1.00
8402;DHT22;4238;48.404;9.498;2023-07-31T18:53:28;18.00;8.60
8402;DHT22;4238;48.404;9.498;2023-07-31T18:55:55;18.00;22.70
8402;DHT22;4238;48.404;9.498;2023-07-31T18:58:22;18.00;19.70
8402;DHT22;4238;48.404;9.498;2023-07-31T19:00:49;18.00;25.80
8402;DHT22;4238;48.404;9.498;2023-07-31T19:03:17;17.90;31.00
8402;DHT22;4238;48.404;9.498;2023-07-31T19:05:44;17.80;44.70
8402;DHT22;4238;48.404;9.498;2023-07-31T19:08:11;17.90;32.10
8402;DHT22;4238;48.404;9.498;2023-07-31T19:10:37;17.90;41.70
8402;DHT22;4238;48.404;9.498;2023-07-31T19:13:04;17.90;39.00
8402;DHT22;4238;48.404;9.498;2023-07-31T19:15:32;17.80;28.10
8402;DHT22;4238;48.404;9.498;2023-07-31T19:17:59;17.80;17.40
8402;DHT22;4238;48.404;9.498;2023-07-31T19:20:28;17.70;4.70
8402;DHT22;4238;48.404;9.498;2023-07-31T19:22:54;17.70;30.00
8402;DHT22;4238;48.404;9.498;2023-07-31T19:25:21;17.60;40.70
8402;DHT22;4238;48.404;9.498;2023-07-31T19:27:48;17.60;45.40
8402;DHT22;4238;48.404;9.498;2023-07-31T19:30:15;17.60;51.80
8402;DHT22;4238;48.404;9.498;2023-07-31T19:32:42;17.60;52.50
8402;DHT22;4238;48.404;9.498;2023-07-31T19:35:11;17.60;56.70
8402;DHT22;4238;48.404;9.498;2023-07-31T19:37:39;17.60;64.30
8402;DHT22;4238;48.404;9.498;2023-07-31T19:40:07;17.60;71.80
8402;DHT22;4238;48.404;9.498;2023-07-31T19:42:34;17.60;74.10
8402;DHT22;4238;48.404;9.498;2023-07-31T19:45:02;17.60;63.20
8402;DHT22;4238;48.404;9.498;2023-07-31T19:47:29;17.80;71.10
8402;DHT22;4238;48.404;9.498;2023-07-31T19:49:56;17.80;78.40
8402;DHT22;4238;48.404;9.498;2023-07-31T19:52:23;17.80;64.80
8402;DHT22;4238;48.404;9.498;2023-07-31T19:54:51;17.80;53.60
8402;DHT22;4238;48.404;9.498;2023-07-31T19:57:18;17.70;57.00
8402;DHT22;4238;48.404;9.498;2023-07-31T19:59:45;17.50;53.20
8402;DHT22;4238;48.404;9.498;2023-07-31T20:02:12;17.50;59.90
8402;DHT22;4238;48.404;9.498;2023-07-31T20:04:38;17.50;77.50
8402;DHT22;4238;48.404;9.498;2023-07-31T20:07:06;17.40;55.90
8402;DHT22;4238;48.404;9.498;2023-07-31T20:09:33;17.40;62.70